createdAt,value
2022-12-11T00:00:00.223Z,34.7
2022-12-11T00:01:07.255Z,34.7
2022-12-11T00:02:00.386Z,34.7
2022-12-11T00:03:00.552Z,37.2
2022-12-11T00:04:00.245Z,37.2
2022-12-11T00:05:00.210Z,37.2
2022-12-11T00:06:04.499Z,37.2
2022-12-11T00:07:00.319Z,37.2
2022-12-11T00:08:00.315Z,37.6
2022-12-11T00:09:00.640Z,37.6
2022-12-11T00:10:00.601Z,37.6
2022-12-11T00:11:00.321Z,37.6
2022-12-11T00:12:00.404Z,37.6
2022-12-11T00:13:00.355Z,40.0
2022-12-11T00:14:00.241Z,40.0
2022-12-11T00:15:00.257Z,40.0
2022-12-11T00:16:00.437Z,40.0
2022-12-11T00:17:00.367Z,40.0
2022-12-11T00:18:00.227Z,37.0
2022-12-11T00:19:00.253Z,37.0
2022-12-11T00:20:00.235Z,37.0
2022-12-11T00:21:01.119Z,37.0
2022-12-11T00:22:00.242Z,37.0
2022-12-11T00:23:00.224Z,40.0
2022-12-11T00:24:00.239Z,40.0
2022-12-11T00:25:00.367Z,40.0
2022-12-11T00:26:00.257Z,40.0
2022-12-11T00:27:00.309Z,40.0
2022-12-11T00:28:00.250Z,37.3
2022-12-11T00:29:00.302Z,37.3
2022-12-11T00:30:00.331Z,37.3
2022-12-11T00:31:05.189Z,37.3
2022-12-11T00:32:00.402Z,37.3
2022-12-11T00:33:00.394Z,35.7
2022-12-11T00:34:01.007Z,35.7
2022-12-11T00:35:00.231Z,35.7
2022-12-11T00:36:00.368Z,35.7
2022-12-11T00:37:00.444Z,35.7
2022-12-11T00:38:00.215Z,37.6
2022-12-11T00:39:01.145Z,37.6
2022-12-11T00:40:00.286Z,37.6
2022-12-11T00:41:00.329Z,37.6
2022-12-11T00:42:00.208Z,37.6
2022-12-11T00:43:00.233Z,37.1
2022-12-11T00:44:00.224Z,37.1
2022-12-11T00:45:00.241Z,37.1
2022-12-11T00:46:01.169Z,37.1
2022-12-11T00:47:00.488Z,37.1
2022-12-11T00:48:00.209Z,37.8
2022-12-11T00:49:00.275Z,37.8
2022-12-11T00:50:00.234Z,37.8
2022-12-11T00:51:00.269Z,37.8
2022-12-11T00:52:00.226Z,36.9
2022-12-11T00:53:00.395Z,36.9
2022-12-11T00:54:00.225Z,36.9
2022-12-11T00:55:00.241Z,36.9
2022-12-11T00:56:00.238Z,36.9
2022-12-11T00:57:00.246Z,35.8
2022-12-11T00:58:00.261Z,35.8
2022-12-11T00:59:00.221Z,35.8
2022-12-11T01:00:00.214Z,35.8
2022-12-11T01:01:10.000Z,35.8
2022-12-11T01:02:00.234Z,38.2
2022-12-11T01:03:00.746Z,38.2
2022-12-11T01:04:00.311Z,38.2
2022-12-11T01:05:00.240Z,38.2
2022-12-11T01:06:00.615Z,38.2
2022-12-11T01:07:00.313Z,37.5
2022-12-11T01:08:00.429Z,37.5
2022-12-11T01:09:00.270Z,37.5
2022-12-11T01:10:00.256Z,37.5
2022-12-11T01:11:03.551Z,37.5
2022-12-11T01:12:00.242Z,37.7
2022-12-11T01:13:04.252Z,37.7
2022-12-11T01:14:00.257Z,37.7
2022-12-11T01:15:00.349Z,37.7
2022-12-11T01:16:05.904Z,37.7
2022-12-11T01:17:00.344Z,36.4
2022-12-11T01:18:00.215Z,36.4
2022-12-11T01:19:00.253Z,36.4
2022-12-11T01:20:00.229Z,36.4
2022-12-11T01:21:04.066Z,36.4
2022-12-11T01:22:00.247Z,36.2
2022-12-11T01:23:00.245Z,36.2
2022-12-11T01:24:00.218Z,36.2
2022-12-11T01:25:00.245Z,36.2
2022-12-11T01:26:06.382Z,36.2
2022-12-11T01:27:00.241Z,36.5
2022-12-11T01:28:00.243Z,36.5
2022-12-11T01:29:00.214Z,36.5
2022-12-11T01:30:00.213Z,36.5
2022-12-11T01:31:00.573Z,36.5
2022-12-11T01:32:00.228Z,34.1
2022-12-11T01:33:00.217Z,34.1
2022-12-11T01:34:00.193Z,34.1
2022-12-11T01:35:03.185Z,34.1
2022-12-11T01:36:00.199Z,34.1
2022-12-11T01:37:00.258Z,36.1
2022-12-11T01:38:00.244Z,36.1
2022-12-11T01:39:00.233Z,36.1
2022-12-11T01:40:00.925Z,36.1
2022-12-11T01:41:00.258Z,36.1
2022-12-11T01:42:00.573Z,34.8
2022-12-11T01:43:00.228Z,34.8
2022-12-11T01:44:04.702Z,34.8
2022-12-11T01:45:11.413Z,34.8
2022-12-11T01:46:00.537Z,34.8
2022-12-11T01:47:00.585Z,35.9
2022-12-11T01:48:07.547Z,35.9
2022-12-11T01:49:02.515Z,35.9
2022-12-11T01:50:00.206Z,35.9
2022-12-11T01:51:03.746Z,35.9
2022-12-11T01:52:07.263Z,35.2
2022-12-11T01:53:01.465Z,35.2
2022-12-11T01:54:06.728Z,35.2
2022-12-11T01:55:00.329Z,35.2
2022-12-11T01:56:01.933Z,35.2
2022-12-11T01:57:05.470Z,34.1
2022-12-11T01:58:01.410Z,34.1
2022-12-11T01:59:03.705Z,34.1
2022-12-11T02:00:00.225Z,34.1
2022-12-11T02:01:01.552Z,34.1
2022-12-11T02:02:06.808Z,32.9
2022-12-11T02:03:00.694Z,32.9
2022-12-11T02:04:00.748Z,32.9
2022-12-11T02:05:03.012Z,32.9
2022-12-11T02:06:01.279Z,32.9
2022-12-11T02:07:00.181Z,32.9
2022-12-11T02:08:02.512Z,32.9
2022-12-11T02:09:00.913Z,32.9
2022-12-11T02:10:00.279Z,32.9
2022-12-11T02:11:09.406Z,32.9
2022-12-11T02:12:10.070Z,33.5
2022-12-11T02:13:06.572Z,33.5
2022-12-11T02:14:11.933Z,33.5
2022-12-11T02:15:14.348Z,33.5
2022-12-11T02:16:13.051Z,33.5
2022-12-11T02:17:09.396Z,33.1
2022-12-11T02:18:06.612Z,33.1
2022-12-11T02:19:14.125Z,33.1
2022-12-11T02:20:15.313Z,33.1
2022-12-11T02:21:04.458Z,33.1
2022-12-11T02:22:06.234Z,31.7
2022-12-11T02:23:11.137Z,31.7
2022-12-11T02:24:20.059Z,31.7
2022-12-11T02:25:14.549Z,31.7
2022-12-11T02:26:20.081Z,31.7
2022-12-11T02:27:10.146Z,31.8
2022-12-11T02:28:13.366Z,31.8
2022-12-11T02:29:02.914Z,31.8
2022-12-11T02:30:05.640Z,31.8
2022-12-11T02:31:04.708Z,31.8
2022-12-11T02:32:04.920Z,32.4
2022-12-11T02:33:00.500Z,32.4
2022-12-11T02:34:03.962Z,32.4
2022-12-11T02:35:10.505Z,32.4
2022-12-11T02:36:03.669Z,32.4
2022-12-11T02:37:06.730Z,30.7
2022-12-11T02:38:04.977Z,30.7
2022-12-11T02:39:03.031Z,30.7
2022-12-11T02:40:04.456Z,30.7
2022-12-11T02:41:03.189Z,30.7
2022-12-11T02:42:01.259Z,29.8
2022-12-11T02:43:03.464Z,29.8
2022-12-11T02:44:02.102Z,29.8
2022-12-11T02:45:01.940Z,29.8
2022-12-11T02:46:05.100Z,29.8
2022-12-11T02:47:03.276Z,29.5
2022-12-11T02:48:02.818Z,29.5
2022-12-11T02:49:04.684Z,29.5
2022-12-11T02:50:02.149Z,29.5
2022-12-11T02:51:02.902Z,29.5
2022-12-11T02:52:02.939Z,30.4
2022-12-11T02:53:03.198Z,30.4
2022-12-11T02:54:01.772Z,30.4
2022-12-11T02:55:02.750Z,30.4
2022-12-11T02:56:07.518Z,30.4
2022-12-11T02:57:07.130Z,31.1
2022-12-11T02:58:11.771Z,31.1
2022-12-11T02:59:07.482Z,31.1
2022-12-11T03:00:00.693Z,31.1
2022-12-11T03:01:00.472Z,31.1
2022-12-11T03:02:01.026Z,30.3
2022-12-11T03:03:01.121Z,30.3
2022-12-11T03:04:00.419Z,30.3
2022-12-11T03:05:00.288Z,30.3
2022-12-11T03:06:00.209Z,30.3
2022-12-11T03:07:05.378Z,31.4
2022-12-11T03:08:00.987Z,31.4
2022-12-11T03:09:00.224Z,31.4
2022-12-11T03:10:00.308Z,31.4
2022-12-11T03:11:00.227Z,31.4
2022-12-11T03:12:00.195Z,31.6
2022-12-11T03:13:01.706Z,31.6
2022-12-11T03:14:01.746Z,31.6
2022-12-11T03:15:04.048Z,31.6
2022-12-11T03:16:10.773Z,31.6
2022-12-11T03:17:12.984Z,31.5
2022-12-11T03:18:08.059Z,31.5
2022-12-11T03:19:08.352Z,31.5
2022-12-11T03:20:10.133Z,31.5
2022-12-11T03:21:08.882Z,31.5
2022-12-11T03:22:09.276Z,30.4
2022-12-11T03:23:11.167Z,30.4
2022-12-11T03:24:09.013Z,30.4
2022-12-11T03:25:06.264Z,30.4
2022-12-11T03:26:02.275Z,30.4
2022-12-11T03:27:11.237Z,31.4
2022-12-11T03:28:11.605Z,31.4
2022-12-11T03:29:07.022Z,31.4
2022-12-11T03:30:06.745Z,31.4
2022-12-11T03:31:06.003Z,31.4
2022-12-11T03:32:08.127Z,31.0
2022-12-11T03:33:04.319Z,31.0
2022-12-11T03:34:06.290Z,31.0
2022-12-11T03:35:15.869Z,31.0
2022-12-11T03:36:04.899Z,31.0
2022-12-11T03:37:03.013Z,30.6
2022-12-11T03:38:05.185Z,30.6
2022-12-11T03:39:08.494Z,30.6
2022-12-11T03:40:06.670Z,30.6
2022-12-11T03:41:03.139Z,30.6
2022-12-11T03:42:04.742Z,30.9
2022-12-11T03:43:02.101Z,30.9
2022-12-11T03:44:00.798Z,30.9
2022-12-11T03:45:02.380Z,30.9
2022-12-11T03:46:00.474Z,30.9
2022-12-11T03:47:05.374Z,31.7
2022-12-11T03:48:01.722Z,31.7
2022-12-11T03:49:06.742Z,31.7
2022-12-11T03:50:03.012Z,31.7
2022-12-11T03:51:03.953Z,31.7
2022-12-11T03:52:03.402Z,30.9
2022-12-11T03:53:02.301Z,30.9
2022-12-11T03:54:01.327Z,30.9
2022-12-11T03:55:03.513Z,30.9
2022-12-11T03:56:02.795Z,30.9
2022-12-11T03:57:02.968Z,32.8
2022-12-11T03:58:00.258Z,32.8
2022-12-11T03:59:00.440Z,32.8
2022-12-11T04:00:00.239Z,32.8
2022-12-11T04:01:00.412Z,32.8
2022-12-11T04:02:00.311Z,32.2
2022-12-11T04:03:00.222Z,32.2
2022-12-11T04:04:00.330Z,32.2
2022-12-11T04:05:00.300Z,32.2
2022-12-11T04:06:00.269Z,32.2
2022-12-11T04:07:00.244Z,30.3
2022-12-11T04:08:00.397Z,30.3
2022-12-11T04:09:00.224Z,30.3
2022-12-11T04:10:00.469Z,30.3
2022-12-11T04:11:03.010Z,30.3
2022-12-11T04:12:00.298Z,31.5
2022-12-11T04:13:00.244Z,31.5
2022-12-11T04:14:05.584Z,31.5
2022-12-11T04:15:00.247Z,31.5
2022-12-11T04:16:00.303Z,31.5
2022-12-11T04:17:00.245Z,31.1
2022-12-11T04:18:00.251Z,31.1
2022-12-11T04:19:00.255Z,31.1
2022-12-11T04:20:00.246Z,31.1
2022-12-11T04:21:00.209Z,31.1
2022-12-11T04:22:00.281Z,31.5
2022-12-11T04:23:02.717Z,31.5
2022-12-11T04:24:00.273Z,31.5
2022-12-11T04:25:00.850Z,31.5
2022-12-11T04:26:05.662Z,31.5
2022-12-11T04:27:00.319Z,32.0
2022-12-11T04:28:00.265Z,32.0
2022-12-11T04:29:00.262Z,32.0
2022-12-11T04:30:00.313Z,32.0
2022-12-11T04:31:00.464Z,32.0
2022-12-11T04:32:00.297Z,30.3
2022-12-11T04:33:00.885Z,30.3
2022-12-11T04:34:00.305Z,30.3
2022-12-11T04:35:00.441Z,30.3
2022-12-11T04:36:00.452Z,30.3
2022-12-11T04:37:00.267Z,31.2
2022-12-11T04:38:00.253Z,31.2
2022-12-11T04:39:00.439Z,31.2
2022-12-11T04:40:00.252Z,31.2
2022-12-11T04:41:06.826Z,31.2
2022-12-11T04:42:00.239Z,32.0
2022-12-11T04:43:00.305Z,32.0
2022-12-11T04:44:00.530Z,32.0
2022-12-11T04:45:00.276Z,32.0
2022-12-11T04:46:07.506Z,32.0
2022-12-11T04:47:00.241Z,31.8
2022-12-11T04:48:00.281Z,31.8
2022-12-11T04:49:00.333Z,31.8
2022-12-11T04:50:00.644Z,31.8
2022-12-11T04:51:00.364Z,31.8
2022-12-11T04:52:00.427Z,29.9
2022-12-11T04:53:00.219Z,29.9
2022-12-11T04:54:00.297Z,29.9
2022-12-11T04:55:00.245Z,29.9
2022-12-11T04:56:00.574Z,29.9
2022-12-11T04:57:00.232Z,30.7
2022-12-11T04:58:00.244Z,30.7
2022-12-11T04:59:00.236Z,30.7
2022-12-11T05:00:00.287Z,30.7
2022-12-11T05:01:05.606Z,30.7
2022-12-11T05:02:00.300Z,29.8
2022-12-11T05:03:00.310Z,29.8
2022-12-11T05:04:00.243Z,29.8
2022-12-11T05:05:00.304Z,29.8
2022-12-11T05:06:00.393Z,29.8
2022-12-11T05:07:00.938Z,29.0
2022-12-11T05:08:00.321Z,29.0
2022-12-11T05:09:00.204Z,29.0
2022-12-11T05:10:00.597Z,29.0
2022-12-11T05:11:04.467Z,29.0
2022-12-11T05:12:00.284Z,28.9
2022-12-11T05:13:00.254Z,28.9
2022-12-11T05:14:00.219Z,28.9
2022-12-11T05:15:00.205Z,28.9
2022-12-11T05:16:03.415Z,28.9
2022-12-11T05:17:00.205Z,30.3
2022-12-11T05:18:00.234Z,30.3
2022-12-11T05:19:00.250Z,30.3
2022-12-11T05:20:00.287Z,30.3
2022-12-11T05:21:04.289Z,29.2
2022-12-11T05:22:00.247Z,29.2
2022-12-11T05:23:00.275Z,29.2
2022-12-11T05:24:00.284Z,29.2
2022-12-11T05:25:00.203Z,29.2
2022-12-11T05:26:04.485Z,25.6
2022-12-11T05:27:00.229Z,25.6
2022-12-11T05:28:00.230Z,25.6
2022-12-11T05:29:00.194Z,25.6
2022-12-11T05:30:00.216Z,25.6
2022-12-11T05:31:04.594Z,27.5
2022-12-11T05:32:00.301Z,27.5
2022-12-11T05:33:00.240Z,27.5
2022-12-11T05:34:00.256Z,27.5
2022-12-11T05:35:00.197Z,27.5
2022-12-11T05:36:00.420Z,26.9
2022-12-11T05:37:00.452Z,26.9
2022-12-11T05:38:00.188Z,26.9
2022-12-11T05:39:00.749Z,26.9
2022-12-11T05:40:00.356Z,26.9
2022-12-11T05:41:03.269Z,25.4
2022-12-11T05:42:00.172Z,25.4
2022-12-11T05:43:00.200Z,25.4
2022-12-11T05:44:00.305Z,25.4
2022-12-11T05:45:00.173Z,25.4
2022-12-11T05:46:07.438Z,27.7
2022-12-11T05:47:00.239Z,27.7
2022-12-11T05:48:00.302Z,27.7
2022-12-11T05:49:01.279Z,27.7
2022-12-11T05:50:00.179Z,27.7
2022-12-11T05:51:01.425Z,26.7
2022-12-11T05:52:00.217Z,26.7
2022-12-11T05:53:00.187Z,26.7
2022-12-11T05:54:01.077Z,26.7
2022-12-11T05:55:00.200Z,26.7
2022-12-11T05:56:02.339Z,24.8
2022-12-11T05:57:00.178Z,24.8
2022-12-11T05:58:00.243Z,24.8
2022-12-11T05:59:01.462Z,24.8
2022-12-11T06:00:00.226Z,24.8
2022-12-11T06:01:00.448Z,25.5
2022-12-11T06:02:00.274Z,25.5
2022-12-11T06:03:00.296Z,25.5
2022-12-11T06:04:01.234Z,25.5
2022-12-11T06:05:00.593Z,25.5
2022-12-11T06:06:01.033Z,25.7
2022-12-11T06:07:00.224Z,25.7
2022-12-11T06:08:00.285Z,25.7
2022-12-11T06:09:00.889Z,25.7
2022-12-11T06:10:00.243Z,25.7
2022-12-11T06:11:01.749Z,23.8
2022-12-11T06:12:00.269Z,23.8
2022-12-11T06:13:00.256Z,23.8
2022-12-11T06:14:02.039Z,23.8
2022-12-11T06:15:00.212Z,23.8
2022-12-11T06:16:01.409Z,23.9
2022-12-11T06:17:00.209Z,23.9
2022-12-11T06:18:00.237Z,23.9
2022-12-11T06:19:00.274Z,23.9
2022-12-11T06:20:00.224Z,23.9
2022-12-11T06:21:00.210Z,24.4
2022-12-11T06:22:00.248Z,24.4
2022-12-11T06:23:01.022Z,24.4
2022-12-11T06:24:02.347Z,24.4
2022-12-11T06:25:00.227Z,24.4
2022-12-11T06:26:02.269Z,24.7
2022-12-11T06:27:00.224Z,24.7
2022-12-11T06:28:00.289Z,24.7
2022-12-11T06:29:00.215Z,24.7
2022-12-11T06:30:00.541Z,24.7
2022-12-11T06:31:00.421Z,23.4
2022-12-11T06:32:00.306Z,23.4
2022-12-11T06:33:00.232Z,23.4
2022-12-11T06:34:00.263Z,23.4
2022-12-11T06:35:00.220Z,23.4
2022-12-11T06:36:01.828Z,23.2
2022-12-11T06:37:00.232Z,23.2
2022-12-11T06:38:00.213Z,23.2
2022-12-11T06:39:00.209Z,23.2
2022-12-11T06:40:00.392Z,23.2
2022-12-11T06:41:01.939Z,23.8
2022-12-11T06:42:00.203Z,23.8
2022-12-11T06:43:00.251Z,23.8
2022-12-11T06:44:00.237Z,23.8
2022-12-11T06:45:00.642Z,23.8
2022-12-11T06:46:12.524Z,23.6
2022-12-11T06:47:00.206Z,23.6
2022-12-11T06:48:00.201Z,23.6
2022-12-11T06:49:00.241Z,23.6
2022-12-11T06:50:00.253Z,23.6
2022-12-11T06:51:03.998Z,24.0
2022-12-11T06:52:00.220Z,24.0
2022-12-11T06:53:00.228Z,24.0
2022-12-11T06:54:00.304Z,24.0
2022-12-11T06:55:00.226Z,24.0
2022-12-11T06:56:05.130Z,23.0
2022-12-11T06:57:00.223Z,23.0
2022-12-11T06:58:00.347Z,23.0
2022-12-11T06:59:05.706Z,23.0
2022-12-11T07:00:00.220Z,23.0
2022-12-11T07:01:00.623Z,23.6
2022-12-11T07:02:00.289Z,23.6
2022-12-11T07:03:00.255Z,23.6
2022-12-11T07:04:00.241Z,23.6
2022-12-11T07:05:00.312Z,23.6
2022-12-11T07:06:01.284Z,23.2
2022-12-11T07:07:00.201Z,23.2
2022-12-11T07:08:00.331Z,23.2
2022-12-11T07:09:02.475Z,23.2
2022-12-11T07:10:07.317Z,23.2
2022-12-11T07:11:02.660Z,23.7
2022-12-11T07:12:00.292Z,23.7
2022-12-11T07:13:00.200Z,23.7
2022-12-11T07:14:00.318Z,23.7
2022-12-11T07:15:00.200Z,23.7
2022-12-11T07:16:01.468Z,24.6
2022-12-11T07:17:00.388Z,24.6
2022-12-11T07:18:00.327Z,24.6
2022-12-11T07:19:00.183Z,24.6
2022-12-11T07:20:00.355Z,24.6
2022-12-11T07:21:00.206Z,24.7
2022-12-11T07:22:00.218Z,24.7
2022-12-11T07:23:00.182Z,24.7
2022-12-11T07:24:00.239Z,24.7
2022-12-11T07:25:00.269Z,24.7
2022-12-11T07:26:10.476Z,24.4
2022-12-11T07:27:00.177Z,24.4
2022-12-11T07:28:00.177Z,24.4
2022-12-11T07:29:00.328Z,24.4
2022-12-11T07:30:00.203Z,24.4
2022-12-11T07:31:10.646Z,23.7
2022-12-11T07:32:00.259Z,23.7
2022-12-11T07:33:00.205Z,23.7
2022-12-11T07:34:04.048Z,23.7
2022-12-11T07:35:00.202Z,23.7
2022-12-11T07:36:05.564Z,23.6
2022-12-11T07:37:00.466Z,23.6
2022-12-11T07:38:00.454Z,23.6
2022-12-11T07:39:00.324Z,23.6
2022-12-11T07:40:00.164Z,23.6
2022-12-11T07:41:01.705Z,24.4
2022-12-11T07:42:00.149Z,24.4
2022-12-11T07:43:00.166Z,24.4
2022-12-11T07:44:00.523Z,24.4
2022-12-11T07:45:00.160Z,24.4
2022-12-11T07:46:02.264Z,23.2
2022-12-11T07:47:00.247Z,23.2
2022-12-11T07:48:00.152Z,23.2
2022-12-11T07:49:00.803Z,23.2
2022-12-11T07:50:00.152Z,23.2
2022-12-11T07:51:08.802Z,23.9
2022-12-11T07:52:00.144Z,23.9
2022-12-11T07:53:00.136Z,23.9
2022-12-11T07:54:03.878Z,23.9
2022-12-11T07:55:00.236Z,23.9
2022-12-11T07:56:00.296Z,23.1
2022-12-11T07:57:00.118Z,23.1
2022-12-11T07:58:00.148Z,23.1
2022-12-11T07:59:01.494Z,23.1
2022-12-11T08:00:00.174Z,23.1
2022-12-11T08:01:00.224Z,23.8
2022-12-11T08:02:02.169Z,23.8
2022-12-11T08:03:00.108Z,23.8
2022-12-11T08:04:00.190Z,23.8
2022-12-11T08:05:00.140Z,23.8
2022-12-11T08:06:00.157Z,23.4
2022-12-11T08:07:00.122Z,23.4
2022-12-11T08:08:00.205Z,23.4
2022-12-11T08:09:03.321Z,23.4
2022-12-11T08:10:00.187Z,23.4
2022-12-11T08:11:01.755Z,22.8
2022-12-11T08:12:00.135Z,22.8
2022-12-11T08:13:00.176Z,22.8
2022-12-11T08:14:00.299Z,22.8
2022-12-11T08:15:00.186Z,22.8
2022-12-11T08:16:04.741Z,22.5
2022-12-11T08:17:00.318Z,22.5
2022-12-11T08:18:00.264Z,22.5
2022-12-11T08:19:00.203Z,22.5
2022-12-11T08:20:00.206Z,22.5
2022-12-11T08:21:04.067Z,22.2
2022-12-11T08:22:00.251Z,22.2
2022-12-11T08:23:00.234Z,22.2
2022-12-11T08:24:00.201Z,22.2
2022-12-11T08:25:00.241Z,22.2
2022-12-11T08:26:04.908Z,21.6
2022-12-11T08:27:00.222Z,21.6
2022-12-11T08:28:00.263Z,21.6
2022-12-11T08:29:00.828Z,21.6
2022-12-11T08:30:00.308Z,21.6
2022-12-11T08:31:04.221Z,21.1
2022-12-11T08:32:00.260Z,21.1
2022-12-11T08:33:00.462Z,21.1
2022-12-11T08:34:00.313Z,21.1
2022-12-11T08:35:00.397Z,21.1
2022-12-11T08:36:03.511Z,21.1
2022-12-11T08:37:00.488Z,21.1
2022-12-11T08:38:00.299Z,21.1
2022-12-11T08:39:00.397Z,21.1
2022-12-11T08:40:00.356Z,21.1
2022-12-11T08:41:11.254Z,18.1
2022-12-11T08:42:00.285Z,18.1
2022-12-11T08:43:00.306Z,18.1
2022-12-11T08:44:00.493Z,18.1
2022-12-11T08:45:00.429Z,18.1
2022-12-11T08:46:00.410Z,20.7
2022-12-11T08:47:00.346Z,20.7
2022-12-11T08:48:00.559Z,20.7
2022-12-11T08:49:00.344Z,20.7
2022-12-11T08:50:00.509Z,20.7
2022-12-11T08:51:01.933Z,20.5
2022-12-11T08:52:02.735Z,20.5
2022-12-11T08:53:00.369Z,20.5
2022-12-11T08:54:00.512Z,20.5
2022-12-11T08:55:00.475Z,20.5
2022-12-11T08:56:01.293Z,20.1
2022-12-11T08:57:00.227Z,20.1
2022-12-11T08:58:00.235Z,20.1
2022-12-11T08:59:00.553Z,20.1
2022-12-11T09:00:00.249Z,20.1
2022-12-11T09:01:05.976Z,20.2
2022-12-11T09:02:00.436Z,20.2
2022-12-11T09:03:00.370Z,20.2
2022-12-11T09:04:00.254Z,20.2
2022-12-11T09:05:00.367Z,20.2
2022-12-11T09:06:03.138Z,18.9
2022-12-11T09:07:00.240Z,18.9
2022-12-11T09:08:00.267Z,18.9
2022-12-11T09:09:01.181Z,18.9
2022-12-11T09:10:00.558Z,18.9
2022-12-11T09:11:02.779Z,22.2
2022-12-11T09:12:00.435Z,22.2
2022-12-11T09:13:00.252Z,22.2
2022-12-11T09:14:06.796Z,22.2
2022-12-11T09:15:00.279Z,22.2
2022-12-11T09:16:03.362Z,19.2
2022-12-11T09:17:00.238Z,19.2
2022-12-11T09:18:00.382Z,19.2
2022-12-11T09:19:00.227Z,19.2
2022-12-11T09:20:00.653Z,19.2
2022-12-11T09:21:02.555Z,20.0
2022-12-11T09:22:00.607Z,20.0
2022-12-11T09:23:00.508Z,20.0
2022-12-11T09:24:00.500Z,20.0
2022-12-11T09:25:00.304Z,20.0
2022-12-11T09:26:03.150Z,19.7
2022-12-11T09:27:00.282Z,19.7
2022-12-11T09:28:00.231Z,19.7
2022-12-11T09:29:03.581Z,19.7
2022-12-11T09:30:00.335Z,19.7
2022-12-11T09:31:00.404Z,18.2
2022-12-11T09:32:00.289Z,18.2
2022-12-11T09:33:00.319Z,18.2
2022-12-11T09:34:03.038Z,18.2
2022-12-11T09:35:00.300Z,18.2
2022-12-11T09:36:01.970Z,16.8
2022-12-11T09:37:00.888Z,16.8
2022-12-11T09:38:00.235Z,16.8
2022-12-11T09:39:02.526Z,16.8
2022-12-11T09:40:07.061Z,16.8
2022-12-11T09:41:00.295Z,18.9
2022-12-11T09:42:09.806Z,18.9
2022-12-11T09:43:08.121Z,18.9
2022-12-11T09:44:10.907Z,18.9
2022-12-11T09:45:02.789Z,18.9
2022-12-11T09:46:03.909Z,20.3
2022-12-11T09:47:00.700Z,20.3
2022-12-11T09:48:01.352Z,20.3
2022-12-11T09:49:02.756Z,20.3
2022-12-11T09:50:10.236Z,18.2
2022-12-11T09:51:05.444Z,18.2
2022-12-11T09:52:10.311Z,18.2
2022-12-11T09:53:12.315Z,18.2
2022-12-11T09:54:03.384Z,18.2
2022-12-11T09:55:08.971Z,16.7
2022-12-11T09:56:14.602Z,16.7
2022-12-11T09:57:20.157Z,16.7
2022-12-11T09:58:17.539Z,16.7
2022-12-11T09:59:16.675Z,16.7
2022-12-11T10:00:13.844Z,18.3
2022-12-11T10:01:09.170Z,18.3
2022-12-11T10:02:20.202Z,18.3
2022-12-11T10:03:20.159Z,18.3
2022-12-11T10:04:11.169Z,18.3
2022-12-11T10:05:10.433Z,19.2
2022-12-11T10:06:13.063Z,19.2
2022-12-11T10:07:12.784Z,19.2
2022-12-11T10:08:07.346Z,19.2
2022-12-11T10:09:10.166Z,19.2
2022-12-11T10:10:06.593Z,19.0
2022-12-11T10:11:11.173Z,19.0
2022-12-11T10:12:11.307Z,19.0
2022-12-11T10:13:12.411Z,19.0
2022-12-11T10:14:20.127Z,19.0
2022-12-11T10:15:10.620Z,18.6
2022-12-11T10:19:00.409Z,18.6
2022-12-11T10:20:16.768Z,17.9
2022-12-11T10:21:01.350Z,17.9
2022-12-11T10:22:01.194Z,17.9
2022-12-11T10:23:02.150Z,17.9
2022-12-11T10:24:03.611Z,17.9
2022-12-11T10:25:12.316Z,15.2
2022-12-11T10:26:14.939Z,15.2
2022-12-11T10:27:15.956Z,15.2
2022-12-11T10:28:10.910Z,15.2
2022-12-11T10:29:01.392Z,15.2
2022-12-11T10:30:12.052Z,17.4
2022-12-11T10:31:18.814Z,17.4
2022-12-11T10:32:01.468Z,17.4
2022-12-11T10:33:10.711Z,17.4
2022-12-11T10:34:02.604Z,17.4
2022-12-11T10:35:03.577Z,17.0
2022-12-11T10:36:00.387Z,17.0
2022-12-11T10:37:01.205Z,17.0
2022-12-11T10:38:10.355Z,17.0
2022-12-11T10:39:00.668Z,17.0
2022-12-11T10:40:00.241Z,15.7
2022-12-11T10:41:03.973Z,15.7
2022-12-11T10:42:14.780Z,15.7
2022-12-11T10:43:00.437Z,15.7
2022-12-11T10:44:00.335Z,15.7
2022-12-11T10:45:02.487Z,15.7
2022-12-11T10:46:00.472Z,15.7
2022-12-11T10:47:01.221Z,15.7
2022-12-11T10:48:02.510Z,15.7
2022-12-11T10:49:00.699Z,15.7
2022-12-11T10:50:01.780Z,16.0
2022-12-11T10:51:04.393Z,16.0
2022-12-11T10:52:01.145Z,16.0
2022-12-11T10:53:00.574Z,16.0
2022-12-11T10:54:07.451Z,16.0
2022-12-11T10:55:05.414Z,15.5
2022-12-11T10:56:01.222Z,15.5
2022-12-11T10:57:02.270Z,15.5
2022-12-11T10:58:03.033Z,15.5
2022-12-11T10:59:00.559Z,15.5
2022-12-11T11:00:01.599Z,15.5
2022-12-11T11:01:12.940Z,15.5
2022-12-11T11:02:01.519Z,15.5
2022-12-11T11:03:01.192Z,15.5
2022-12-11T11:04:05.368Z,15.5
2022-12-11T11:05:14.401Z,15.5
2022-12-11T11:06:02.474Z,15.5
2022-12-11T11:07:11.225Z,15.5
2022-12-11T11:08:13.581Z,15.5
2022-12-11T11:09:00.994Z,15.5
2022-12-11T11:10:10.355Z,15.1
2022-12-11T11:11:00.447Z,15.1
2022-12-11T11:12:07.435Z,15.1
2022-12-11T11:13:01.378Z,15.1
2022-12-11T11:14:05.867Z,15.1
2022-12-11T11:20:11.504Z,15.0
2022-12-11T11:21:00.848Z,15.0
2022-12-11T11:22:08.261Z,15.0
2022-12-11T11:23:03.193Z,15.0
2022-12-11T11:24:00.261Z,15.0
2022-12-11T11:25:01.064Z,15.2
2022-12-11T11:26:05.249Z,15.2
2022-12-11T11:27:13.906Z,15.2
2022-12-11T11:28:03.989Z,15.2
2022-12-11T11:29:00.258Z,15.2
2022-12-11T11:30:04.128Z,14.7
2022-12-11T11:31:03.565Z,14.7
2022-12-11T11:32:12.520Z,14.7
2022-12-11T11:33:11.207Z,14.7
2022-12-11T11:34:05.566Z,14.7
2022-12-11T11:35:10.462Z,14.9
2022-12-11T11:36:03.456Z,14.9
2022-12-11T11:37:00.233Z,14.9
2022-12-11T11:38:18.717Z,14.9
2022-12-11T11:39:13.470Z,14.9
2022-12-11T11:40:12.562Z,14.3
2022-12-11T11:41:15.291Z,14.3
2022-12-11T11:42:16.172Z,14.3
2022-12-11T11:43:15.362Z,14.3
2022-12-11T11:44:05.363Z,14.3
2022-12-11T11:45:09.719Z,14.8
2022-12-11T11:46:13.565Z,14.8
2022-12-11T11:47:13.660Z,14.8
2022-12-11T11:48:12.399Z,14.8
2022-12-11T11:49:20.145Z,14.8
2022-12-11T11:50:06.954Z,14.5
2022-12-11T11:51:11.775Z,14.5
2022-12-11T11:52:10.170Z,14.5
2022-12-11T11:53:04.916Z,14.5
2022-12-11T11:54:07.564Z,14.5
2022-12-11T11:55:11.328Z,14.3
2022-12-11T11:56:17.651Z,14.3
2022-12-11T11:57:14.416Z,14.3
2022-12-11T11:58:07.916Z,14.3
2022-12-11T11:59:11.156Z,14.3
2022-12-11T12:00:05.850Z,15.1
2022-12-11T12:01:00.240Z,15.1
2022-12-11T12:02:00.237Z,15.1
2022-12-11T12:03:07.500Z,15.1
2022-12-11T12:04:03.040Z,15.1
2022-12-11T12:05:01.622Z,16.3
2022-12-11T12:06:13.426Z,16.3
2022-12-11T12:07:12.564Z,16.3
2022-12-11T12:08:08.529Z,16.3
2022-12-11T12:09:20.172Z,16.3
2022-12-11T12:10:11.130Z,15.9
2022-12-11T12:11:01.284Z,15.9
2022-12-11T12:12:26.397Z,15.9
2022-12-11T12:13:10.855Z,15.9
2022-12-11T12:14:43.743Z,15.9
2022-12-11T12:15:14.549Z,14.5
2022-12-11T12:16:01.398Z,14.5
2022-12-11T12:17:07.761Z,14.5
2022-12-11T12:18:09.817Z,14.5
2022-12-11T12:19:08.342Z,14.5
2022-12-11T12:20:11.171Z,14.0
2022-12-11T12:21:12.541Z,14.0
2022-12-11T12:22:18.565Z,14.0
2022-12-11T12:23:10.470Z,14.0
2022-12-11T12:24:06.994Z,14.0
2022-12-11T12:25:20.117Z,14.9
2022-12-11T12:26:10.104Z,14.9
2022-12-11T12:27:29.447Z,14.9
2022-12-11T12:28:20.135Z,14.9
2022-12-11T12:29:19.657Z,14.9
2022-12-11T12:30:08.234Z,14.2
2022-12-11T12:31:04.571Z,14.2
2022-12-11T12:32:08.206Z,14.2
2022-12-11T12:33:13.977Z,14.2
2022-12-11T12:34:13.470Z,14.2
2022-12-11T12:35:20.129Z,15.2
2022-12-11T12:36:10.067Z,15.2
2022-12-11T12:37:06.976Z,15.2
2022-12-11T12:38:05.978Z,15.2
2022-12-11T12:39:06.928Z,15.2
2022-12-11T12:40:20.157Z,15.1
2022-12-11T12:41:08.664Z,15.1
2022-12-11T12:42:10.178Z,15.1
2022-12-11T12:43:14.917Z,15.1
2022-12-11T12:44:13.430Z,15.1
2022-12-11T12:45:10.113Z,13.5
2022-12-11T12:46:13.897Z,13.5
2022-12-11T12:47:08.032Z,13.5
2022-12-11T12:48:00.848Z,13.5
2022-12-11T12:49:01.380Z,13.5
2022-12-11T12:50:02.630Z,15.1
2022-12-11T12:51:02.406Z,15.1
2022-12-11T12:52:01.630Z,15.1
2022-12-11T12:53:00.552Z,15.1
2022-12-11T12:54:04.689Z,15.1
2022-12-11T12:55:15.723Z,15.3
2022-12-11T12:56:02.022Z,15.3
2022-12-11T12:57:02.572Z,15.3
2022-12-11T12:58:04.668Z,15.3
2022-12-11T12:59:00.201Z,15.3
2022-12-11T13:00:00.371Z,14.8
2022-12-11T13:01:11.241Z,14.8
2022-12-11T13:02:02.821Z,14.8
2022-12-11T13:03:12.284Z,14.8
2022-12-11T13:04:03.273Z,14.8
2022-12-11T13:05:14.824Z,15.0
2022-12-11T13:06:08.316Z,15.0
2022-12-11T13:07:11.853Z,15.0
2022-12-11T13:08:02.832Z,15.0
2022-12-11T13:09:13.916Z,15.0
2022-12-11T13:10:20.101Z,14.8
2022-12-11T13:11:05.101Z,14.8
2022-12-11T13:12:12.940Z,14.8
2022-12-11T13:13:02.182Z,14.8
2022-12-11T13:14:02.287Z,14.8
2022-12-11T13:15:00.310Z,14.9
2022-12-11T13:16:17.701Z,14.9
2022-12-11T13:17:16.122Z,14.9
2022-12-11T13:18:03.814Z,14.9
2022-12-11T13:19:00.721Z,14.9
2022-12-11T13:20:12.292Z,15.0
2022-12-11T13:21:02.055Z,15.0
2022-12-11T13:22:11.168Z,15.0
2022-12-11T13:23:16.793Z,15.0
2022-12-11T13:24:15.760Z,15.0
2022-12-11T13:25:11.544Z,14.2
2022-12-11T13:26:02.697Z,14.2